Home > Products > Valid Products > TAF

000
FTUS45 KLKN 290520
TAFWMC
TAF
KWMC 290520Z 2906/3006 VRB06KT P6SM VCSH SCT040 BKN060
     FM290800 VRB05KT P6SM BKN070
     FM291800 26010KT P6SM VCSH SCT040 BKN060
     FM292000 27010G20KT P6SM -RA VCTS SCT040 BKN060CB
     FM300200 33010G20KT 5SM -SHRA BR BKN025=



000
FTUS45 KLKN 290520
TAFELY
TAF
KELY 290520Z 2906/3006 01006KT P6SM VCSH SCT040 BKN060
     FM291000 17006KT P6SM SCT035 BKN060
     FM291500 VRB06KT P6SM SCT035 BKN050
     FM292000 32009KT P6SM VCTS SCT035 BKN050CB
     FM300200 33007KT P6SM -RA BKN035=



000
FTUS45 KLKN 290520
TAFEKO
TAF
KEKO 290520Z 2906/3006 VRB06KT P6SM VCSH SCT040 BKN060
     FM290900 VRB05KT P6SM SCT060 BKN080
     FM291800 26011KT P6SM -RA SCT040 BKN060
     FM292100 26011KT P6SM -RA VCTS SCT035 BKN050CB
     FM300200 VRB06KT 5SM -RA BKN035=



000
FTUS45 KLKN 290520
TAFTPH
TAF
KTPH 290520Z 2906/3006 36011KT P6SM VCSH SCT040 BKN060
     FM290800 36011KT P6SM SCT080
     FM291700 33015G25KT P6SM SCT060 BKN080
     FM300000 34020G30KT P6SM VCSH SCT040 BKN060=



000
FTUS45 KLKN 290327 AAB
TAFTPH
TAF AMD
KTPH 290327Z 2903/2924 01011KT P6SM SCT050 BKN070
     FM290500 34014G24KT P6SM SCT080
     FM290800 36011KT P6SM SCT080
     FM291700 32014G26KT P6SM SCT060 BKN100=



000
FTUS45 KLKN 290206 AAA
TAFTPH
TAF AMD
KTPH 290206Z 2902/2924 01020KT P6SM VCSH SCT060 BKN080
     FM290300 36016G26KT P6SM SCT050 BKN080
     FM290500 34014G24KT P6SM SCT080
     FM290800 36011KT P6SM SCT080
     FM291700 32014G26KT P6SM SCT060 BKN100=



000
FTUS45 KLKN 282324
TAFEKO
TAF
KEKO 282324Z 2900/2924 02011KT P6SM VCSH FEW040 BKN080
     FM290300 VRB04KT P6SM SCT060 BKN090
     FM291700 26011KT P6SM SCT060 BKN090
     FM292100 26011G19KT P6SM VCSH SCT040 BKN080=



000
FTUS45 KLKN 282324
TAFELY
TAF
KELY 282324Z 2900/2924 35018G28KT P6SM VCSH SCT030 BKN040
     FM290200 35011KT P6SM VCSH FEW030 BKN040
     FM290500 35007KT P6SM SCT025 BKN040
     FM291000 17006KT P6SM SCT035 BKN060
     FM291700 36009KT P6SM SCT035 BKN080=



000
FTUS45 KLKN 282324
TAFWMC
TAF
KWMC 282324Z 2900/2924 34010G20KT P6SM VCSH SCT050 BKN080
     FM290300 31008KT P6SM SCT050 BKN080
     FM290700 VRB04KT P6SM SCT080 BKN140
     FM291700 28011KT P6SM SCT060 BKN120
     FM292000 29011G19KT P6SM VCSH SCT050 BKN100=



000
FTUS45 KLKN 282324
TAFTPH
TAF
KTPH 282324Z 2900/2924 36024G34KT P6SM VCSH SCT050 BKN090
     FM290300 36016G26KT P6SM SCT050 BKN080
     FM290500 34014G24KT P6SM SCT080
     FM290800 36011KT P6SM SCT080
     FM291700 32014G26KT P6SM SCT060 BKN100=



000
FTUS45 KLKN 281931 AAB
TAFELY
TAF AMD
KELY 281931Z 2820/2918 36016G26KT P6SM VCSH BKN015 OVC030
     FM282100 36015G26KT P6SM VCSH SCT015 BKN030 OVC060
     FM290100 34008KT P6SM VCSH SCT025 BKN040
     FM290800 17006KT P6SM SCT045 BKN060=



000
FTUS45 KLKN 281931 AAB
TAFELY
TAF AMD
KELY 281931Z 2820/2918 36016G26KT P6SM VCSH BKN015 OVC030
     FM282100 36015G26KT P6SM VCSH SCT015 BKN030 OVC060
     FM290100 34008KT P6SM VCSH SCT025 BKN040
     FM290800 17006KT P6SM SCT045 BKN060=



000
FTUS45 KLKN 281902 AAA
TAFELY
TAF AMD
KELY 281902Z 2819/2918 01011G19KT P6SM VCSH SCT009 BKN012
     FM282100 01012G22KT P6SM VCSH SCT010 BKN020
     FM290100 34008KT P6SM VCSH SCT025 BKN040
     FM290800 17006KT P6SM SCT045 BKN060=



000
FTUS45 KLKN 281724
TAFEKO
TAF
KEKO 281724Z 2818/2918 04011G20KT P6SM VCSH FEW035 SCT080 BKN150
     FM282300 35009KT P6SM VCSH SCT035 BKN080
     FM290400 VRB04KT P6SM SCT035 BKN080
     FM291600 26007KT P6SM SCT040 BKN090=



000
FTUS45 KLKN 281724
TAFELY
TAF
KELY 281724Z 2818/2918 01011KT P6SM VCSH BKN005 OVC009
     FM282000 36011G19KT P6SM -RA SCT005 OVC010
     FM282200 36014G22KT P6SM -RA SCT009 BKN020 OVC030
     FM290200 34008KT P6SM VCSH SCT025 BKN040
     FM290800 17006KT P6SM SCT045 BKN060=



000
FTUS45 KLKN 281724
TAFWMC
TAF
KWMC 281724Z 2818/2918 35012G22KT P6SM VCSH BKN035 OVC050
     FM282200 36012G22KT P6SM VCSH SCT035 BKN060
     FM290200 30007KT P6SM SCT030 BKN050
     FM290500 VRB04KT P6SM SCT050 BKN080
     FM291600 26009KT P6SM SCT060 BKN100=



000
FTUS45 KLKN 281724
TAFTPH
TAF
KTPH 281724Z 2818/2918 33022G32KT P6SM FEW035 SCT070
     FM282000 35030G40KT P6SM VCSH SCT030 BKN060
     FM290300 35015G25KT P6SM SCT045 BKN070
     FM290500 34012G22KT P6SM SCT050 BKN070
     FM290800 36011KT P6SM SCT060 BKN100
     FM291600 33012G22KT P6SM SCT060 SCT100=



000
FTUS45 KLKN 281542 AAA
TAFEKO
TAF AMD
KEKO 281542Z 2816/2912 04011KT P6SM -RA SCT025 BKN040
     FM281800 03010G20KT 6SM -RA SCT025 BKN040
     FM290000 VRB06KT P6SM VCSH SCT040 BKN060
     FM290600 VRB05KT P6SM SCT060 BKN080=



000
FTUS45 KLKN 281538 AAA
TAFWMC
TAF AMD
KWMC 281538Z 2816/2912 33014G24KT P6SM VCSH SCT045 BKN080
     FM281700 01010G20KT P6SM VCSH SCT040 BKN060
     FM282200 35010KT P6SM VCSH SCT040 BKN060
     FM290200 VRB06KT P6SM SCT050 BKN070=



000
FTUS45 KLKN 281328 AAA
TAFELY
TAF AMD
KELY 281328Z 2813/2912 36008KT 1SM -SN BR BKN013
     FM281700 35010KT 5SM -RA BKN015
     FM282200 01015KT P6SM -RA SCT015 OVC025
     FM290200 VRB06KT P6SM VCSH SCT025 BKN040
     FM290600 17006KT P6SM SCT045 BKN060=



000
FTUS45 KLKN 281120
TAFTPH
TAF
KTPH 281120Z 2812/2912 33011KT P6SM SCT040 BKN060
     FM281400 34015KT P6SM VCSH SCT035 BKN050
     FM281600 33025G35KT P6SM VCSH SCT030 BKN050
     FM281900 35030G40KT P6SM VCSH SCT025 BKN060
     FM290300 35015G25KT P6SM SCT045 BKN070
     FM290800 34011KT P6SM SCT050 BKN070=



000
FTUS45 KLKN 281120
TAFWMC
TAF
KWMC 281120Z 2812/2912 29008KT P6SM VCSH SCT045 BKN080
     FM281700 01010G20KT P6SM VCSH SCT040 BKN060
     FM282200 35010KT P6SM VCSH SCT040 BKN060
     FM290200 VRB06KT P6SM SCT050 BKN070=



000
FTUS45 KLKN 281120
TAFELY
TAF
KELY 281120Z 2812/2912 36010KT 4SM -RASN BR BKN005
     FM282200 01015KT P6SM -RA SCT015 OVC025
     FM290200 VRB06KT P6SM VCSH SCT025 BKN040
     FM290600 17006KT P6SM SCT045 BKN060=



000
FTUS45 KLKN 281120
TAFEKO
TAF
KEKO 281120Z 2812/2912 03011KT 6SM -RA BR SCT010 BKN020
     FM281800 03010G20KT 6SM -RA BR SCT025 BKN040
     FM290000 VRB06KT P6SM VCSH SCT040 BKN060
     FM290600 VRB05KT P6SM SCT060 BKN080=



000
FTUS45 KLKN 280907 AAA
TAFTPH
TAF AMD
KTPH 280907Z 2809/2906 36010KT P6SM SCT040 BKN060
     FM281300 34015G25KT P6SM VCSH SCT035 BKN070
     FM281600 33025G35KT P6SM VCSH SCT030 BKN070
     FM281900 35030G40KT P6SM VCSH SCT025 BKN060
     FM290300 35015G25KT P6SM SCT045 BKN070=



000
FTUS45 KLKN 280905 AAA
TAFWMC
TAF AMD
KWMC 280905Z 2809/2906 VRB06KT P6SM VCSH SCT040 BKN060
     FM281800 01010G20KT P6SM VCSH SCT040 BKN060
     FM290100 36009KT P6SM SCT050 BKN070=



000
FTUS45 KLKN 280905 AAA
TAFWMC
TAF AMD
KWMC 280905Z 2809/2906 VRB06KT P6SM VCSH SCT040 BKN060
     FM281800 01010G20KT P6SM VCSH SCT040 BKN060
     FM290100 36009KT P6SM SCT050 BKN070=



000
FTUS45 KLKN 280704 AAA
TAFELY
TAF AMD
KELY 280704Z 2807/2906 36010KT P6SM -RA SCT005 BKN010
     FM281000 36006KT 2SM -SN SCT002 OVC005
     FM281600 35011KT 4SM -RASN SCT008 OVC015
     FM282000 01015KT P6SM -RA SCT015 OVC025
     FM290200 01006KT P6SM VCSH SCT025 BKN035=



000
FTUS45 KLKN 280520
TAFTPH
TAF
KTPH 280520Z 2806/2906 19010KT P6SM VCSH SCT030 BKN040
     FM281300 34015G25KT P6SM VCSH SCT035 BKN070
     FM281600 33025G35KT P6SM VCSH SCT030 BKN070
     FM281900 35030G40KT P6SM VCSH SCT025 BKN060
     FM290300 35015G25KT P6SM SCT045 BKN070=



000
FTUS45 KLKN 280520
TAFELY
TAF
KELY 280520Z 2806/2906 32011KT P6SM -RA SCT007 BKN040
     FM281000 36006KT 2SM -SN SCT002 OVC005
     FM281600 35011KT 4SM -RASN SCT008 OVC015
     FM282000 01015KT P6SM -RA SCT015 OVC025
     FM290200 01006KT P6SM VCSH SCT025 BKN035=



000
FTUS45 KLKN 280520
TAFEKO
TAF
KEKO 280520Z 2806/2906 VRB06KT P6SM -RA BKN025
     FM281400 03011KT 4SM -RA BR SCT015 OVC025
     FM290000 VRB06KT P6SM VCSH SCT040 BKN060=



000
FTUS45 KLKN 280520
TAFWMC
TAF
KWMC 280520Z 2806/2906 04010KT P6SM VCSH SCT040 BKN060
     FM280900 01009KT P6SM -RA BKN030
     FM281800 01010G20KT P6SM VCSH SCT040 BKN060
     FM290100 36009KT P6SM SCT050 BKN070=



000
FTUS45 KLKN 280306 AAA
TAFWMC
TAF AMD
KWMC 280306Z 2803/2824 04011KT P6SM VCSH SCT035 BKN060
     FM280400 02008KT P6SM SCT035 BKN080
     FM281000 32009KT P6SM SCT030 BKN060
     FM281700 34014G24KT P6SM VCSH SCT035 BKN060=



000
FTUS45 KLKN 280205 AAA
TAFTPH
TAF AMD
KTPH 280205Z 2802/2824 32016KT P6SM VCSH SCT060 BKN140
     FM280300 35014G22KT P6SM VCSH SCT035 BKN080
     FM280700 36014G24KT P6SM SCT030 BKN070
     FM281500 33028G40KT P6SM SCT035 BKN090
     FM281900 34028G42KT P6SM VCSH SCT030 BKN070=



000
FTUS45 KLKN 272327
TAFEKO
TAF
KEKO 272327Z 2800/2824 VRB04KT P6SM VCSH BKN025 BKN040
      TEMPO 2800/2802 2SM -RA OVC020
     FM280500 23009KT P6SM -RA SCT015 BKN025
     FM281600 03009G18KT P6SM -RA SCT015 OVC025=



000
FTUS45 KLKN 272327
TAFTPH
TAF
KTPH 272327Z 2800/2824 34016G26KT P6SM VCSH SCT040 BKN140
     FM280300 35014G22KT P6SM VCSH SCT035 BKN080
     FM280700 36014G24KT P6SM SCT030 BKN070
     FM281500 33028G40KT P6SM SCT035 BKN090
     FM281900 34028G42KT P6SM VCSH SCT030 BKN070=



000
FTUS45 KLKN 272327
TAFELY
TAF
KELY 272327Z 2800/2824 VRB04KT P6SM -RA SCT015 BKN035
      TEMPO 2801/2805 6SM -RA SCT008 BKN015
     FM280500 34008KT 4SM -RASN SCT006 OVC009
     FM281000 36006KT 2SM -SN SCT002 OVC005
     FM281600 35007KT 6SM -RASN SCT008 OVC015
     FM282000 36009KT P6SM VCSH SCT015 OVC025=



000
FTUS45 KLKN 272327
TAFWMC
TAF
KWMC 272327Z 2800/2824 VRB04KT P6SM VCSH SCT035 OVC060
     FM280400 02008KT P6SM SCT035 BKN080
     FM281000 32009KT P6SM SCT030 BKN060
     FM281700 34014G24KT P6SM VCSH SCT035 BKN060=



000
FTUS45 KLKN 272130 AAA
TAFEKO
TAF AMD
KEKO 272130Z 2722/2818 23007KT P6SM VCSH SCT025 BKN045 BKN060
     FM272300 04006KT P6SM VCSH SCT020 BKN040
     FM280200 08006KT P6SM -RA SCT010 OVC020
     FM280800 23011KT P6SM -RA SCT015 BKN025
     FM281500 04009G18KT P6SM -RA SCT010 OVC020=



000
FTUS45 KLKN 271958 AAB
TAFELY
TAF AMD
KELY 271958Z 2720/2818 VRB04KT P6SM -RA SCT010 SCT020 OVC035
      TEMPO 2721/2723 BKN020
     FM272300 02007KT 6SM -RA SCT009 OVC020
     FM280400 01009KT 4SM -RASN SCT004 OVC008
     FM281000 36006KT 2SM -SN SCT002 OVC005
     FM281600 02007KT 6SM -RASN SCT008 OVC015=



000
FTUS45 KLKN 271957 AAA
TAFTPH
TAF AMD
KTPH 271957Z 2720/2818 32011G18KT P6SM VCTS BKN030 BKN050CB
     FM272200 34014G22KT P6SM VCTS SCT020 BKN050CB
     FM280200 35012G20KT P6SM VCSH SCT020 BKN040
     FM280700 36014G24KT P6SM SCT030 BKN060
     FM281400 33018G32KT P6SM SCT035 BKN080=



000
FTUS45 KLKN 271847 AAA
TAFELY
TAF AMD
KELY 271847Z 2719/2818 VRB04KT P6SM -RA SCT009 BKN015
      TEMPO 2719/2720 5SM -RA OVC009
     FM272000 34007KT 6SM -RA SCT009 OVC015
     FM272300 02007KT 6SM -RA SCT009 OVC020
     FM280400 01009KT 4SM -RASN SCT004 OVC008
     FM281000 36006KT 2SM -SN SCT002 OVC005
     FM281600 02007KT 6SM -RASN SCT008 OVC015=



000
FTUS45 KLKN 271722
TAFTPH
TAF
KTPH 271722Z 2718/2818 34011G18KT P6SM VCTS SCT020 BKN050CB
     FM272200 34014G22KT P6SM VCTS SCT020 BKN050CB
     FM280200 35012G20KT P6SM VCSH SCT020 BKN040
     FM280700 36014G24KT P6SM SCT030 BKN060
     FM281400 33018G32KT P6SM SCT035 BKN080=



000
FTUS45 KLKN 271722
TAFELY
TAF
KELY 271722Z 2718/2818 VRB04KT P6SM -RA SCT010 BKN025
      TEMPO 2718/2720 5SM -RASN OVC010
     FM272000 34007KT 6SM -RA SCT009 OVC015
     FM272300 02007KT 6SM -RA SCT009 OVC020
     FM280400 01009KT 4SM -RASN SCT004 OVC008
     FM281000 36006KT 2SM -SN SCT002 OVC005
     FM281600 02007KT 6SM -RASN SCT008 OVC015=



000
FTUS45 KLKN 271722
TAFEKO
TAF
KEKO 271722Z 2718/2818 23007KT P6SM VCSH SCT025 BKN045 BKN060
     FM272000 27007KT 6SM -SHRA SCT010 OVC020
     FM272300 04006KT P6SM VCTS SCT010 OVC020CB
     FM280200 08006KT P6SM -RA SCT010 OVC020
     FM280800 23011KT P6SM -RA SCT015 BKN025
     FM281500 04009G18KT P6SM -RA SCT010 OVC020=



000
FTUS45 KLKN 271722
TAFWMC
TAF
KWMC 271722Z 2718/2818 VRB04KT P6SM VCSH BKN020 OVC030
     FM272000 26007KT P6SM VCSH SCT025 BKN040
     FM272200 32008KT P6SM VCTS SCT025 BKN040CB
     FM280300 02008KT P6SM VCSH SCT025 BKN040
     FM280800 32009KT P6SM SCT020 BKN030=



000
FTUS45 KLKN 271524 AAA
TAFELY
TAF AMD
KELY 271524Z 2715/2812 VRB04KT 6SM -RA BKN008 OVC020
     FM271900 16006KT P6SM -RA SCT020 BKN030
     FM272200 06006KT 4SM RA BR BKN005
     FM280500 36006KT 5SM -RA BR BKN015=



000
FTUS45 KLKN 271348 AAB
TAFWMC
TAF AMD
KWMC 271348Z 2714/2812 26007KT P6SM -RA SCT025 BKN035
      TEMPO 2714/2717 BKN025
     FM271800 22006KT P6SM VCSH BKN040
     FM272200 02008KT P6SM VCTS SCT025 BKN040CB
     FM280300 01008KT P6SM -SHRA SCT025 BKN040=



000
FTUS45 KLKN 271348 AAB
TAFWMC
TAF AMD
KWMC 271348Z 2714/2812 26007KT P6SM -RA SCT025 BKN035
      TEMPO 2714/2717 BKN025
     FM271800 22006KT P6SM VCSH BKN040
     FM272200 02008KT P6SM VCTS SCT025 BKN040CB
     FM280300 01008KT P6SM -SHRA SCT025 BKN040=



000
FTUS45 KLKN 271242 AAA
TAFWMC
TAF AMD
KWMC 271242Z 2713/2812 26007KT P6SM -RA BKN035
     FM271800 22006KT P6SM VCSH BKN040
     FM272200 02008KT P6SM VCTS SCT025 BKN040CB
     FM280300 01008KT P6SM -SHRA SCT025 BKN040=



000
FTUS45 KLKN 271120
TAFWMC
TAF
KWMC 271120Z 2712/2812 VRB04KT P6SM VCSH SCT040 BKN060
      TEMPO 2712/2715 27010G20KT BKN040
     FM271500 VRB06KT P6SM -SHRA BKN025
     FM272200 02008KT P6SM VCTS SCT025 BKN040CB
     FM280300 01008KT P6SM -SHRA SCT025 BKN040=



000
FTUS45 KLKN 271120
TAFEKO
TAF
KEKO 271120Z 2712/2812 VRB03KT P6SM BKN060
     FM271400 VRB04KT P6SM VCSH SCT040 BKN060
     FM271900 VRB06KT 6SM -SHRA BKN015
     FM280500 17015G25KT P6SM -RA BKN020
     FM280900 23011KT P6SM -RA BKN025=



000
FTUS45 KLKN 271120
TAFTPH
TAF
KTPH 271120Z 2712/2812 32011KT P6SM VCSH SCT040 BKN070
     FM271800 33011KT P6SM VCTS SCT025 OVC040CB
     FM280300 36010G20KT P6SM VCSH SCT020 BKN040=



000
FTUS45 KLKN 271120
TAFELY
TAF
KELY 271120Z 2712/2812 16006KT P6SM VCSH SCT040 BKN050
     FM271700 16006KT P6SM -RA SCT040 BKN050
     FM272200 06006KT 4SM RA BR BKN005
     FM280500 36006KT 5SM -RA BR BKN015=



000
FTUS45 KLKN 271120
TAFWMC
TAF
KWMC 271120Z 2712/2812 VRB04KT P6SM VCSH SCT040 BKN060
      TEMPO 2712/2715 27010G20KT BKN040
     FM271500 VRB06KT P6SM -SHRA BKN025
     FM272200 02008KT P6SM VCTS SCT025 BKN040CB
     FM280300 01008KT P6SM -SHRA SCT025 BKN040=



000
FTUS45 KLKN 271120
TAFEKO
TAF
KEKO 271120Z 2712/2812 VRB03KT P6SM BKN060
     FM271400 VRB04KT P6SM VCSH SCT040 BKN060
     FM271900 VRB06KT 6SM -SHRA BKN015
     FM280500 17015G25KT P6SM -RA BKN020
     FM280900 23011KT P6SM -RA BKN025=



000
FTUS45 KLKN 271120
TAFTPH
TAF
KTPH 271120Z 2712/2812 32011KT P6SM VCSH SCT040 BKN070
     FM271800 33011KT P6SM VCTS SCT025 OVC040CB
     FM280300 36010G20KT P6SM VCSH SCT020 BKN040=



000
FTUS45 KLKN 271120
TAFELY
TAF
KELY 271120Z 2712/2812 16006KT P6SM VCSH SCT040 BKN050
     FM271700 16006KT P6SM -RA SCT040 BKN050
     FM272200 06006KT 4SM RA BR BKN005
     FM280500 36006KT 5SM -RA BR BKN015=



000
FTUS45 KLKN 270520
TAFELY
TAF
KELY 270520Z 2706/2806 30006KT P6SM SCT050 BKN080
     FM271100 18006KT P6SM VCSH SCT040 BKN050
     FM271700 16006KT P6SM -RA SCT040 BKN050
     FM272200 16006KT 5SM -SHRA BR SCT020 OVC030=



000
FTUS45 KLKN 270520
TAFEKO
TAF
KEKO 270520Z 2706/2806 VRB03KT P6SM BKN060
     FM271400 VRB04KT P6SM VCSH SCT040 BKN060
     FM271900 VRB06KT P6SM -SHRA BKN030=



000
FTUS45 KLKN 270520
TAFTPH
TAF
KTPH 270520Z 2706/2806 34017KT P6SM SCT050 BKN080
     FM270900 36011KT P6SM VCSH SCT040 BKN070
     FM271300 34011KT 6SM -SHRA SCT025 OVC050
     FM280000 33015G25KT P6SM VCSH BKN020=



000
FTUS45 KLKN 270520
TAFWMC
TAF
KWMC 270520Z 2706/2806 VRB04KT P6SM SCT080
     FM271000 VRB04KT P6SM VCSH SCT040 BKN060
     FM271500 VRB06KT P6SM -SHRA BKN025
     FM272200 02008KT P6SM VCSH SCT025 BKN040=



000
FTUS45 KLKN 262335
TAFEKO
TAF
KEKO 262335Z 2700/2724 26011KT P6SM SCT040 BKN060
     FM270400 VRB04KT P6SM SCT040 SCT060
     FM270900 VRB04KT P6SM SCT060 SCT120 BKN200
     FM271500 VRB04KT P6SM VCSH SCT050 BKN100
     FM272000 VRB04KT 6SM -SHRA SCT025 OVC050=



000
FTUS45 KLKN 262335
TAFTPH
TAF
KTPH 262335Z 2700/2724 32012G20KT P6SM SCT060 SCT250
     FM270200 33011G18KT P6SM FEW060 SCT140 BKN200
     FM270500 36007KT P6SM SCT050 SCT120 BKN200
     FM271300 36009KT P6SM VCSH SCT040 BKN080
     FM271700 30011G17KT 6SM -SHRA SCT025 OVC050=



000
FTUS45 KLKN 262335
TAFWMC
TAF
KWMC 262335Z 2700/2724 VRB04KT P6SM SCT060 SCT250
     FM270400 VRB04KT P6SM SCT060 SCT120 BKN200
     FM271000 29007KT P6SM VCSH SCT050 BKN100
     FM271700 VRB04KT 6SM -SHRA SCT030 OVC060=



000
FTUS45 KLKN 262335
TAFELY
TAF
KELY 262335Z 2700/2724 03006KT P6SM SCT040 OVC050
     FM270500 19005KT P6SM SCT050 SCT250
     FM271100 17008KT P6SM SCT050 SCT100 BKN200
     FM271600 16006KT P6SM VCSH SCT040 BKN080
     FM272200 16006KT 6SM -SHRA SCT020 OVC040=



000
FTUS45 KLKN 262335
TAFWMC
TAF
KWMC 262335Z 2700/2724 VRB04KT P6SM SCT060 SCT250
     FM270400 VRB04KT P6SM SCT060 SCT120 BKN200
     FM271000 29007KT P6SM VCSH SCT050 BKN100
     FM271700 VRB04KT 6SM -SHRA SCT030 OVC060=



000
FTUS45 KLKN 262335
TAFTPH
TAF
KTPH 262335Z 2700/2724 32012G20KT P6SM SCT060 SCT250
     FM270200 33011G18KT P6SM FEW060 SCT140 BKN200
     FM270500 36007KT P6SM SCT050 SCT120 BKN200
     FM271300 36009KT P6SM VCSH SCT040 BKN080
     FM271700 30011G17KT 6SM -SHRA SCT025 OVC050=



000
FTUS45 KLKN 262335
TAFELY
TAF
KELY 262335Z 2700/2724 03006KT P6SM SCT040 OVC050
     FM270500 19005KT P6SM SCT050 SCT250
     FM271100 17008KT P6SM SCT050 SCT100 BKN200
     FM271600 16006KT P6SM VCSH SCT040 BKN080
     FM272200 16006KT 6SM -SHRA SCT020 OVC040=



000
FTUS45 KLKN 262335
TAFEKO
TAF
KEKO 262335Z 2700/2724 26011KT P6SM SCT040 BKN060
     FM270400 VRB04KT P6SM SCT040 SCT060
     FM270900 VRB04KT P6SM SCT060 SCT120 BKN200
     FM271500 VRB04KT P6SM VCSH SCT050 BKN100
     FM272000 VRB04KT 6SM -SHRA SCT025 OVC050=



000
FTUS45 KLKN 261728
TAFTPH
TAF
KTPH 261728Z 2618/2718 33012G20KT P6SM FEW060
     FM262000 33011G20KT P6SM SCT060 SCT250
     FM270100 34011KT P6SM FEW060 SCT140 BKN200
     FM271400 35011KT P6SM SCT060 BKN140 OVC200=



000
FTUS45 KLKN 261728
TAFWMC
TAF
KWMC 261728Z 2618/2718 27008KT P6SM FEW080
     FM262200 26008KT P6SM FEW080 SCT250
     FM270200 VRB04KT P6SM FEW080 SCT120 BKN200
     FM271400 29009KT P6SM SCT060 BKN120=



000
FTUS45 KLKN 261728
TAFELY
TAF
KELY 261728Z 2618/2718 34009KT P6SM BKN025 OVC040
     FM262200 36011KT P6SM SCT025 BKN040
     FM270400 19006KT P6SM SCT040 SCT250
     FM271000 17008KT P6SM SCT090 BKN200
      AMD NOT SKED=



000
FTUS45 KLKN 261728
TAFEKO
TAF
KEKO 261728Z 2618/2718 22011KT P6SM BKN035
     FM262200 26011KT P6SM SCT035 BKN100
     FM270400 VRB03KT P6SM SCT100 SCT250
     FM271400 VRB04KT P6SM SCT080 BKN200=



000
FTUS45 KLKN 261120
TAFELY
TAF
KELY 261120Z 2612/2712 35006KT 4SM -SN BR SCT013 BKN029
     FM261400 35007KT P6SM VCSH SCT025 BKN070
     FM261600 36008KT P6SM FEW080
     FM270400 VRB06KT P6SM FEW100 BKN150
      AMD NOT SKED=



000
FTUS45 KLKN 261120
TAFELY
TAF
KELY 261120Z 2612/2712 35006KT 4SM -SN BR SCT013 BKN029
     FM261400 35007KT P6SM VCSH SCT025 BKN070
     FM261600 36008KT P6SM FEW080
     FM270400 VRB06KT P6SM FEW100 BKN150
      AMD NOT SKED=



000
FTUS45 KLKN 261120
TAFWMC
TAF
KWMC 261120Z 2612/2712 VRB06KT P6SM FEW070
     FM262100 26006KT P6SM FEW080 SCT250
     FM270200 VRB06KT P6SM FEW080 BKN200=



000
FTUS45 KLKN 261120
TAFEKO
TAF
KEKO 261120Z 2612/2712 VRB06KT P6SM SCT007 BKN090
     FM261500 24010KT P6SM SCT010 BKN090
     FM262200 VRB06KT P6SM SCT015 BKN090
     FM270600 VRB03KT P6SM FEW090=



000
FTUS45 KLKN 261120
TAFWMC
TAF
KWMC 261120Z 2612/2712 VRB06KT P6SM FEW070
     FM262100 26006KT P6SM FEW080 SCT250
     FM270200 VRB06KT P6SM FEW080 BKN200=



000
FTUS45 KLKN 261120
TAFEKO
TAF
KEKO 261120Z 2612/2712 VRB06KT P6SM SCT007 BKN090
     FM261500 24010KT P6SM SCT010 BKN090
     FM262200 VRB06KT P6SM SCT015 BKN090
     FM270600 VRB03KT P6SM FEW090=



000
FTUS45 KLKN 261120
TAFTPH
TAF
KTPH 261120Z 2612/2712 33010G20KT P6SM BKN060
     FM261500 33015G25KT P6SM SKC
     FM262000 33010G20KT P6SM BKN250
     FM270000 34011KT P6SM SCT150 BKN200=



000
FTUS45 KLKN 261120
TAFTPH
TAF
KTPH 261120Z 2612/2712 33010G20KT P6SM BKN060
     FM261500 33015G25KT P6SM SKC
     FM262000 33010G20KT P6SM BKN250
     FM270000 34011KT P6SM SCT150 BKN200=



000
FTUS45 KLKN 260711 AAA
TAFELY
TAF AMD
KELY 260711Z 2607/2706 31006KT 3SM -SN BR OVC007
      TEMPO 2607/2611 1 1/2SM -SN BR BKN004
     FM261600 36007KT P6SM VCSH BKN007
     FM261800 01006KT P6SM FEW007 BKN035
     FM270000 VRB06KT P6SM SCT040 BKN060
      AMD NOT SKED=



000
FTUS45 KLKN 260707 AAA
TAFEKO
TAF AMD
KEKO 260707Z 2607/2706 21010KT P6SM VCSH SCT030 BKN070
     FM261000 24005KT P6SM VCFG BKN007 OVC020
     FM261700 23007KT P6SM BKN030
     FM261900 VRB06KT P6SM BKN035
     FM262100 VRB06KT P6SM SCT035 BKN050
     FM270500 VRB03KT P6SM SCT070=



000
FTUS45 KLKN 260707 AAA
TAFEKO
TAF AMD
KEKO 260707Z 2607/2706 21010KT P6SM VCSH SCT030 BKN070
     FM261000 24005KT P6SM VCFG BKN007 OVC020
     FM261700 23007KT P6SM BKN030
     FM261900 VRB06KT P6SM BKN035
     FM262100 VRB06KT P6SM SCT035 BKN050
     FM270500 VRB03KT P6SM SCT070=



    US Dept of Commerce
    National Oceanic and Atmospheric Administration
    National Weather Service
    1325 East West Highway
    Silver Spring, MD 20910
    Page Author: NWS Internet Services Team
Disclaimer
Information Quality
Credits
Glossary
Privacy Policy
Freedom of Information Act (FOIA)
About Us
Career Opportunities